YMML/MEL METAR and TAF weather

Enter ICAO airport designator
Station Type Date Time Source
YMML METAR 2020/01/23 15:00 UTC NOAA

YMML 231500Z 31007KT CAVOK 12/04 Q1008


Station Type Date Time Source
YMML Decoded METAR 2020/01/23 15:00 UTC NOAA

Melbourne Airport, Australia (YMML) 37-40S 144-50E 141M
Jan 23, 2020 - 10:00 AM EST / 2020.01.23 1500 UTC
Wind: from the NW (310 degrees) at 8 MPH (7 KT):0
Visibility: greater than 7 mile(s):0
Temperature: 53 F (12 C)
Dew Point: 39 F (4 C)
Relative Humidity: 57%
Pressure (altimeter): 29.77 in. Hg (1008 hPa)
ob: YMML 231500Z 31007KT CAVOK 12/04 Q1008
cycle: 15

Station Type Date Time Source
YMML TAF 2020/01/23 12:33 UTC NOAA

TAF YMML 231104Z 2312/2418 34010KT CAVOK
FM240000 27012KT 9999 SCT050
FM240900 33008KT 9999 FEW040

Example: see airport list